sensor_id;sensor_type;location;lat;lon;timestamp;P1;durP1;ratioP1;P2;durP2;ratioP2
25824;SDS011;13658;44.534;18.694;2024-03-08T00:02:15;48.45;;;29.08;;
25824;SDS011;13658;44.534;18.694;2024-03-08T00:04:41;51.55;;;29.67;;
25824;SDS011;13658;44.534;18.694;2024-03-08T00:07:07;52.53;;;30.88;;
25824;SDS011;13658;44.534;18.694;2024-03-08T00:09:33;53.85;;;31.30;;
25824;SDS011;13658;44.534;18.694;2024-03-08T00:11:59;55.20;;;31.50;;
25824;SDS011;13658;44.534;18.694;2024-03-08T00:14:25;56.17;;;32.88;;
25824;SDS011;13658;44.534;18.694;2024-03-08T00:16:51;58.33;;;31.52;;
25824;SDS011;13658;44.534;18.694;2024-03-08T00:19:18;57.63;;;33.25;;
25824;SDS011;13658;44.534;18.694;2024-03-08T00:21:44;61.63;;;32.55;;
25824;SDS011;13658;44.534;18.694;2024-03-08T00:24:10;59.20;;;33.00;;
25824;SDS011;13658;44.534;18.694;2024-03-08T00:26:37;61.80;;;34.67;;
25824;SDS011;13658;44.534;18.694;2024-03-08T00:29:03;57.50;;;32.35;;
25824;SDS011;13658;44.534;18.694;2024-03-08T00:31:29;56.63;;;32.17;;
25824;SDS011;13658;44.534;18.694;2024-03-08T00:33:56;58.28;;;31.77;;
25824;SDS011;13658;44.534;18.694;2024-03-08T00:36:22;59.85;;;33.42;;
25824;SDS011;13658;44.534;18.694;2024-03-08T00:38:48;55.25;;;31.58;;
25824;SDS011;13658;44.534;18.694;2024-03-08T00:41:14;56.38;;;31.27;;
25824;SDS011;13658;44.534;18.694;2024-03-08T00:43:40;57.03;;;31.90;;
25824;SDS011;13658;44.534;18.694;2024-03-08T00:46:06;57.53;;;32.88;;
25824;SDS011;13658;44.534;18.694;2024-03-08T00:48:33;57.00;;;32.17;;
25824;SDS011;13658;44.534;18.694;2024-03-08T00:50:59;59.17;;;33.25;;
25824;SDS011;13658;44.534;18.694;2024-03-08T00:53:25;57.38;;;33.15;;
25824;SDS011;13658;44.534;18.694;2024-03-08T00:55:51;58.75;;;33.10;;
25824;SDS011;13658;44.534;18.694;2024-03-08T00:58:16;59.72;;;34.17;;
25824;SDS011;13658;44.534;18.694;2024-03-08T01:00:42;61.05;;;34.05;;
25824;SDS011;13658;44.534;18.694;2024-03-08T01:03:09;62.40;;;35.25;;
25824;SDS011;13658;44.534;18.694;2024-03-08T01:05:36;58.70;;;34.30;;
25824;SDS011;13658;44.534;18.694;2024-03-08T01:08:01;60.25;;;34.35;;
25824;SDS011;13658;44.534;18.694;2024-03-08T01:10:28;61.60;;;34.47;;
25824;SDS011;13658;44.534;18.694;2024-03-08T01:12:54;58.83;;;32.85;;
25824;SDS011;13658;44.534;18.694;2024-03-08T01:15:22;55.50;;;31.70;;
25824;SDS011;13658;44.534;18.694;2024-03-08T01:17:48;59.53;;;32.78;;
25824;SDS011;13658;44.534;18.694;2024-03-08T01:20:15;60.72;;;32.08;;
25824;SDS011;13658;44.534;18.694;2024-03-08T01:22:41;65.28;;;36.28;;
25824;SDS011;13658;44.534;18.694;2024-03-08T01:25:07;105.10;;;47.45;;
25824;SDS011;13658;44.534;18.694;2024-03-08T01:27:33;99.53;;;47.03;;
25824;SDS011;13658;44.534;18.694;2024-03-08T01:30:00;98.10;;;44.53;;
25824;SDS011;13658;44.534;18.694;2024-03-08T01:32:26;92.15;;;44.72;;
25824;SDS011;13658;44.534;18.694;2024-03-08T01:34:52;91.50;;;43.50;;
25824;SDS011;13658;44.534;18.694;2024-03-08T01:37:18;93.22;;;44.25;;
25824;SDS011;13658;44.534;18.694;2024-03-08T01:39:45;96.30;;;46.33;;
25824;SDS011;13658;44.534;18.694;2024-03-08T01:42:11;91.68;;;45.92;;
25824;SDS011;13658;44.534;18.694;2024-03-08T01:44:40;93.70;;;45.65;;
25824;SDS011;13658;44.534;18.694;2024-03-08T01:47:06;96.75;;;46.35;;
25824;SDS011;13658;44.534;18.694;2024-03-08T01:49:32;94.82;;;44.42;;
25824;SDS011;13658;44.534;18.694;2024-03-08T01:51:58;85.93;;;43.53;;
25824;SDS011;13658;44.534;18.694;2024-03-08T01:54:25;86.28;;;41.85;;
25824;SDS011;13658;44.534;18.694;2024-03-08T01:56:52;83.18;;;42.40;;
25824;SDS011;13658;44.534;18.694;2024-03-08T01:59:18;80.47;;;41.40;;
25824;SDS011;13658;44.534;18.694;2024-03-08T02:01:44;80.50;;;42.33;;
25824;SDS011;13658;44.534;18.694;2024-03-08T02:04:10;84.03;;;43.28;;
25824;SDS011;13658;44.534;18.694;2024-03-08T02:06:36;81.45;;;41.90;;
25824;SDS011;13658;44.534;18.694;2024-03-08T02:09:04;74.68;;;40.28;;
25824;SDS011;13658;44.534;18.694;2024-03-08T02:11:35;82.00;;;43.17;;
25824;SDS011;13658;44.534;18.694;2024-03-08T02:14:02;76.85;;;41.85;;
25824;SDS011;13658;44.534;18.694;2024-03-08T02:16:27;77.97;;;39.67;;
25824;SDS011;13658;44.534;18.694;2024-03-08T02:18:53;69.22;;;39.40;;
25824;SDS011;13658;44.534;18.694;2024-03-08T02:21:19;69.70;;;38.92;;
25824;SDS011;13658;44.534;18.694;2024-03-08T02:23:46;69.57;;;38.17;;
25824;SDS011;13658;44.534;18.694;2024-03-08T02:26:12;71.28;;;38.72;;
25824;SDS011;13658;44.534;18.694;2024-03-08T02:28:38;67.38;;;37.80;;
25824;SDS011;13658;44.534;18.694;2024-03-08T02:31:04;70.43;;;38.05;;
25824;SDS011;13658;44.534;18.694;2024-03-08T02:33:33;65.93;;;38.20;;
25824;SDS011;13658;44.534;18.694;2024-03-08T02:35:59;72.25;;;38.38;;
25824;SDS011;13658;44.534;18.694;2024-03-08T02:38:26;72.63;;;37.38;;
25824;SDS011;13658;44.534;18.694;2024-03-08T02:40:52;65.30;;;37.83;;
25824;SDS011;13658;44.534;18.694;2024-03-08T02:43:19;65.03;;;37.63;;
25824;SDS011;13658;44.534;18.694;2024-03-08T02:45:47;63.85;;;35.35;;
25824;SDS011;13658;44.534;18.694;2024-03-08T02:48:14;70.50;;;37.63;;
25824;SDS011;13658;44.534;18.694;2024-03-08T02:50:41;68.45;;;36.90;;
25824;SDS011;13658;44.534;18.694;2024-03-08T02:53:11;63.97;;;36.53;;
25824;SDS011;13658;44.534;18.694;2024-03-08T02:55:38;67.00;;;36.78;;
25824;SDS011;13658;44.534;18.694;2024-03-08T02:58:06;70.95;;;37.28;;
25824;SDS011;13658;44.534;18.694;2024-03-08T03:00:38;64.65;;;36.17;;
25824;SDS011;13658;44.534;18.694;2024-03-08T03:03:06;70.47;;;37.88;;
25824;SDS011;13658;44.534;18.694;2024-03-08T03:05:32;67.75;;;36.72;;
25824;SDS011;13658;44.534;18.694;2024-03-08T03:07:59;65.18;;;37.25;;
25824;SDS011;13658;44.534;18.694;2024-03-08T03:10:25;71.32;;;38.88;;
25824;SDS011;13658;44.534;18.694;2024-03-08T03:12:51;69.40;;;38.05;;
25824;SDS011;13658;44.534;18.694;2024-03-08T03:15:18;68.60;;;38.40;;
25824;SDS011;13658;44.534;18.694;2024-03-08T03:17:50;67.72;;;37.70;;
25824;SDS011;13658;44.534;18.694;2024-03-08T03:20:17;68.35;;;37.47;;
25824;SDS011;13658;44.534;18.694;2024-03-08T03:22:52;72.28;;;38.00;;
25824;SDS011;13658;44.534;18.694;2024-03-08T03:25:21;70.78;;;38.47;;
25824;SDS011;13658;44.534;18.694;2024-03-08T03:27:51;66.07;;;36.78;;
25824;SDS011;13658;44.534;18.694;2024-03-08T03:30:23;67.75;;;37.83;;
25824;SDS011;13658;44.534;18.694;2024-03-08T03:32:52;66.35;;;37.20;;
25824;SDS011;13658;44.534;18.694;2024-03-08T03:35:20;66.90;;;36.97;;
25824;SDS011;13658;44.534;18.694;2024-03-08T03:37:47;67.63;;;38.38;;
25824;SDS011;13658;44.534;18.694;2024-03-08T03:40:27;73.63;;;38.92;;
25824;SDS011;13658;44.534;18.694;2024-03-08T03:42:56;72.95;;;39.67;;
25824;SDS011;13658;44.534;18.694;2024-03-08T03:45:25;71.60;;;40.10;;
25824;SDS011;13658;44.534;18.694;2024-03-08T03:47:51;70.65;;;39.55;;
25824;SDS011;13658;44.534;18.694;2024-03-08T03:50:18;74.25;;;42.13;;
25824;SDS011;13658;44.534;18.694;2024-03-08T03:52:50;71.53;;;41.38;;
25824;SDS011;13658;44.534;18.694;2024-03-08T03:55:16;74.10;;;41.15;;
25824;SDS011;13658;44.534;18.694;2024-03-08T03:57:43;72.72;;;41.75;;
25824;SDS011;13658;44.534;18.694;2024-03-08T04:00:11;78.10;;;41.85;;
25824;SDS011;13658;44.534;18.694;2024-03-08T04:02:40;80.63;;;43.08;;
25824;SDS011;13658;44.534;18.694;2024-03-08T04:05:07;72.93;;;40.85;;
25824;SDS011;13658;44.534;18.694;2024-03-08T04:07:34;76.65;;;40.90;;
25824;SDS011;13658;44.534;18.694;2024-03-08T04:10:02;74.57;;;40.08;;
25824;SDS011;13658;44.534;18.694;2024-03-08T04:12:28;79.18;;;40.70;;
25824;SDS011;13658;44.534;18.694;2024-03-08T04:14:55;71.25;;;39.70;;
25824;SDS011;13658;44.534;18.694;2024-03-08T04:17:21;71.32;;;39.63;;
25824;SDS011;13658;44.534;18.694;2024-03-08T04:19:49;76.20;;;41.67;;
25824;SDS011;13658;44.534;18.694;2024-03-08T04:22:15;72.13;;;39.00;;
25824;SDS011;13658;44.534;18.694;2024-03-08T04:24:43;70.10;;;39.80;;
25824;SDS011;13658;44.534;18.694;2024-03-08T04:27:10;69.65;;;38.55;;
25824;SDS011;13658;44.534;18.694;2024-03-08T04:29:36;70.40;;;37.60;;
25824;SDS011;13658;44.534;18.694;2024-03-08T04:32:03;73.05;;;39.38;;
25824;SDS011;13658;44.534;18.694;2024-03-08T04:34:30;76.13;;;41.10;;
25824;SDS011;13658;44.534;18.694;2024-03-08T04:36:59;77.00;;;41.40;;
25824;SDS011;13658;44.534;18.694;2024-03-08T04:39:27;73.53;;;40.28;;
25824;SDS011;13658;44.534;18.694;2024-03-08T04:42:01;78.68;;;43.45;;
25824;SDS011;13658;44.534;18.694;2024-03-08T04:44:35;74.80;;;42.17;;
25824;SDS011;13658;44.534;18.694;2024-03-08T04:47:03;72.95;;;41.75;;
25824;SDS011;13658;44.534;18.694;2024-03-08T04:49:31;75.22;;;40.95;;
25824;SDS011;13658;44.534;18.694;2024-03-08T04:52:03;72.40;;;40.63;;
25824;SDS011;13658;44.534;18.694;2024-03-08T04:54:29;72.07;;;39.38;;
25824;SDS011;13658;44.534;18.694;2024-03-08T04:56:56;74.53;;;40.97;;
25824;SDS011;13658;44.534;18.694;2024-03-08T04:59:22;73.38;;;42.35;;
25824;SDS011;13658;44.534;18.694;2024-03-08T05:01:49;75.30;;;43.13;;
25824;SDS011;13658;44.534;18.694;2024-03-08T05:04:15;75.13;;;40.92;;
25824;SDS011;13658;44.534;18.694;2024-03-08T05:06:41;74.63;;;41.22;;
25824;SDS011;13658;44.534;18.694;2024-03-08T05:09:07;77.22;;;42.25;;
25824;SDS011;13658;44.534;18.694;2024-03-08T05:11:42;72.55;;;39.03;;
25824;SDS011;13658;44.534;18.694;2024-03-08T05:14:09;73.78;;;40.63;;
25824;SDS011;13658;44.534;18.694;2024-03-08T05:16:36;78.22;;;40.75;;
25824;SDS011;13658;44.534;18.694;2024-03-08T05:19:02;71.30;;;40.90;;
25824;SDS011;13658;44.534;18.694;2024-03-08T05:21:28;69.53;;;39.00;;
25824;SDS011;13658;44.534;18.694;2024-03-08T05:23:54;67.47;;;38.65;;
25824;SDS011;13658;44.534;18.694;2024-03-08T05:26:20;73.25;;;41.53;;
25824;SDS011;13658;44.534;18.694;2024-03-08T05:28:47;74.88;;;42.05;;
25824;SDS011;13658;44.534;18.694;2024-03-08T05:31:22;72.25;;;39.45;;
25824;SDS011;13658;44.534;18.694;2024-03-08T05:33:48;71.70;;;39.20;;
25824;SDS011;13658;44.534;18.694;2024-03-08T05:36:15;66.47;;;39.38;;
25824;SDS011;13658;44.534;18.694;2024-03-08T05:38:44;70.32;;;39.67;;
25824;SDS011;13658;44.534;18.694;2024-03-08T05:41:11;79.00;;;43.10;;
25824;SDS011;13658;44.534;18.694;2024-03-08T05:43:37;88.40;;;45.80;;
25824;SDS011;13658;44.534;18.694;2024-03-08T05:46:04;85.28;;;44.20;;
25824;SDS011;13658;44.534;18.694;2024-03-08T05:48:30;85.70;;;43.83;;
25824;SDS011;13658;44.534;18.694;2024-03-08T05:51:02;98.07;;;46.50;;
25824;SDS011;13658;44.534;18.694;2024-03-08T05:53:28;89.15;;;45.25;;
25824;SDS011;13658;44.534;18.694;2024-03-08T05:55:57;82.88;;;44.42;;
25824;SDS011;13658;44.534;18.694;2024-03-08T05:58:24;142.93;;;60.83;;
25824;SDS011;13658;44.534;18.694;2024-03-08T06:00:50;105.55;;;51.38;;
25824;SDS011;13658;44.534;18.694;2024-03-08T06:03:16;95.03;;;48.53;;
25824;SDS011;13658;44.534;18.694;2024-03-08T06:05:43;94.18;;;48.50;;
25824;SDS011;13658;44.534;18.694;2024-03-08T06:08:09;81.00;;;45.08;;
25824;SDS011;13658;44.534;18.694;2024-03-08T06:10:35;70.38;;;39.88;;
25824;SDS011;13658;44.534;18.694;2024-03-08T06:13:01;64.57;;;36.90;;
25824;SDS011;13658;44.534;18.694;2024-03-08T06:15:27;68.53;;;38.50;;
25824;SDS011;13658;44.534;18.694;2024-03-08T06:17:52;75.65;;;39.97;;
25824;SDS011;13658;44.534;18.694;2024-03-08T06:20:18;69.70;;;39.85;;
25824;SDS011;13658;44.534;18.694;2024-03-08T06:22:44;54.58;;;30.77;;
25824;SDS011;13658;44.534;18.694;2024-03-08T06:25:11;52.63;;;31.17;;
25824;SDS011;13658;44.534;18.694;2024-03-08T06:27:40;52.30;;;30.60;;
25824;SDS011;13658;44.534;18.694;2024-03-08T06:30:08;52.63;;;31.33;;
25824;SDS011;13658;44.534;18.694;2024-03-08T06:32:38;41.25;;;26.55;;
25824;SDS011;13658;44.534;18.694;2024-03-08T06:35:04;48.47;;;29.75;;
25824;SDS011;13658;44.534;18.694;2024-03-08T06:37:34;52.45;;;31.00;;
25824;SDS011;13658;44.534;18.694;2024-03-08T06:40:00;62.05;;;37.00;;
25824;SDS011;13658;44.534;18.694;2024-03-08T06:42:28;59.63;;;35.33;;
25824;SDS011;13658;44.534;18.694;2024-03-08T06:44:54;64.38;;;37.05;;
25824;SDS011;13658;44.534;18.694;2024-03-08T06:47:25;68.68;;;40.25;;
25824;SDS011;13658;44.534;18.694;2024-03-08T06:49:51;66.80;;;38.15;;
25824;SDS011;13658;44.534;18.694;2024-03-08T06:52:17;66.35;;;37.72;;
25824;SDS011;13658;44.534;18.694;2024-03-08T06:54:43;59.08;;;36.00;;
25824;SDS011;13658;44.534;18.694;2024-03-08T06:57:09;59.42;;;35.90;;
25824;SDS011;13658;44.534;18.694;2024-03-08T06:59:35;54.83;;;34.45;;
25824;SDS011;13658;44.534;18.694;2024-03-08T07:02:02;57.90;;;34.40;;
25824;SDS011;13658;44.534;18.694;2024-03-08T07:04:30;50.22;;;30.50;;
25824;SDS011;13658;44.534;18.694;2024-03-08T07:07:06;55.17;;;32.70;;
25824;SDS011;13658;44.534;18.694;2024-03-08T07:09:35;54.58;;;32.95;;
25824;SDS011;13658;44.534;18.694;2024-03-08T07:12:02;49.42;;;31.10;;
25824;SDS011;13658;44.534;18.694;2024-03-08T07:14:29;53.28;;;31.90;;
25824;SDS011;13658;44.534;18.694;2024-03-08T07:16:56;52.00;;;31.80;;
25824;SDS011;13658;44.534;18.694;2024-03-08T07:19:22;57.83;;;34.20;;
25824;SDS011;13658;44.534;18.694;2024-03-08T07:21:49;55.45;;;32.88;;
25824;SDS011;13658;44.534;18.694;2024-03-08T07:24:15;59.78;;;37.17;;
25824;SDS011;13658;44.534;18.694;2024-03-08T07:26:43;58.75;;;35.45;;
25824;SDS011;13658;44.534;18.694;2024-03-08T07:29:10;63.75;;;36.28;;
25824;SDS011;13658;44.534;18.694;2024-03-08T07:31:36;59.40;;;35.75;;
25824;SDS011;13658;44.534;18.694;2024-03-08T07:34:21;58.10;;;34.93;;
25824;SDS011;13658;44.534;18.694;2024-03-08T07:36:47;58.22;;;34.78;;
25824;SDS011;13658;44.534;18.694;2024-03-08T07:39:15;65.32;;;38.03;;
25824;SDS011;13658;44.534;18.694;2024-03-08T07:41:41;65.97;;;37.78;;
25824;SDS011;13658;44.534;18.694;2024-03-08T07:44:07;64.80;;;37.42;;
25824;SDS011;13658;44.534;18.694;2024-03-08T07:46:33;65.45;;;38.33;;
25824;SDS011;13658;44.534;18.694;2024-03-08T07:48:59;64.15;;;38.70;;
25824;SDS011;13658;44.534;18.694;2024-03-08T07:51:25;70.50;;;41.30;;
25824;SDS011;13658;44.534;18.694;2024-03-08T07:53:51;76.65;;;43.70;;
25824;SDS011;13658;44.534;18.694;2024-03-08T07:56:17;69.63;;;39.33;;
25824;SDS011;13658;44.534;18.694;2024-03-08T07:58:44;69.28;;;38.22;;
25824;SDS011;13658;44.534;18.694;2024-03-08T08:01:16;62.20;;;37.60;;
25824;SDS011;13658;44.534;18.694;2024-03-08T08:03:43;65.75;;;38.38;;
25824;SDS011;13658;44.534;18.694;2024-03-08T08:06:10;61.83;;;35.97;;
25824;SDS011;13658;44.534;18.694;2024-03-08T08:08:41;64.35;;;36.80;;
25824;SDS011;13658;44.534;18.694;2024-03-08T08:11:07;55.78;;;31.55;;
25824;SDS011;13658;44.534;18.694;2024-03-08T08:13:34;59.25;;;34.53;;
25824;SDS011;13658;44.534;18.694;2024-03-08T08:16:01;62.90;;;35.80;;
25824;SDS011;13658;44.534;18.694;2024-03-08T08:18:28;58.53;;;34.55;;
25824;SDS011;13658;44.534;18.694;2024-03-08T08:20:57;61.88;;;35.80;;
25824;SDS011;13658;44.534;18.694;2024-03-08T08:23:25;53.65;;;32.00;;
25824;SDS011;13658;44.534;18.694;2024-03-08T08:25:51;57.03;;;33.85;;
25824;SDS011;13658;44.534;18.694;2024-03-08T08:28:17;49.35;;;28.92;;
25824;SDS011;13658;44.534;18.694;2024-03-08T08:30:44;49.20;;;30.52;;
25824;SDS011;13658;44.534;18.694;2024-03-08T08:33:10;49.72;;;29.90;;
25824;SDS011;13658;44.534;18.694;2024-03-08T08:35:36;93.30;;;49.97;;
25824;SDS011;13658;44.534;18.694;2024-03-08T08:38:03;44.17;;;28.08;;
25824;SDS011;13658;44.534;18.694;2024-03-08T08:40:30;45.85;;;27.90;;
25824;SDS011;13658;44.534;18.694;2024-03-08T08:42:59;44.30;;;26.30;;
25824;SDS011;13658;44.534;18.694;2024-03-08T08:45:25;44.78;;;27.15;;
25824;SDS011;13658;44.534;18.694;2024-03-08T08:47:51;47.58;;;27.88;;
25824;SDS011;13658;44.534;18.694;2024-03-08T08:50:17;42.85;;;25.10;;
25824;SDS011;13658;44.534;18.694;2024-03-08T08:52:48;42.85;;;26.20;;
25824;SDS011;13658;44.534;18.694;2024-03-08T08:55:14;44.17;;;26.52;;
25824;SDS011;13658;44.534;18.694;2024-03-08T08:57:41;42.95;;;26.13;;
25824;SDS011;13658;44.534;18.694;2024-03-08T09:00:07;43.10;;;26.30;;
25824;SDS011;13658;44.534;18.694;2024-03-08T09:02:36;43.92;;;26.02;;
25824;SDS011;13658;44.534;18.694;2024-03-08T09:05:03;39.30;;;24.83;;
25824;SDS011;13658;44.534;18.694;2024-03-08T09:07:29;41.97;;;26.02;;
25824;SDS011;13658;44.534;18.694;2024-03-08T09:09:55;49.53;;;29.27;;
25824;SDS011;13658;44.534;18.694;2024-03-08T09:12:23;30.90;;;18.67;;
25824;SDS011;13658;44.534;18.694;2024-03-08T09:14:49;30.83;;;18.25;;
25824;SDS011;13658;44.534;18.694;2024-03-08T09:17:15;28.60;;;18.80;;
25824;SDS011;13658;44.534;18.694;2024-03-08T09:19:47;31.25;;;18.65;;
25824;SDS011;13658;44.534;18.694;2024-03-08T09:22:14;34.17;;;18.95;;
25824;SDS011;13658;44.534;18.694;2024-03-08T09:24:40;34.40;;;19.17;;
25824;SDS011;13658;44.534;18.694;2024-03-08T09:27:05;34.00;;;20.38;;
25824;SDS011;13658;44.534;18.694;2024-03-08T09:29:31;38.08;;;22.33;;
25824;SDS011;13658;44.534;18.694;2024-03-08T09:31:57;31.13;;;19.05;;
25824;SDS011;13658;44.534;18.694;2024-03-08T09:34:23;33.17;;;19.40;;
25824;SDS011;13658;44.534;18.694;2024-03-08T09:36:49;32.13;;;18.70;;
25824;SDS011;13658;44.534;18.694;2024-03-08T09:39:17;64.53;;;40.17;;
25824;SDS011;13658;44.534;18.694;2024-03-08T09:41:46;37.38;;;22.55;;
25824;SDS011;13658;44.534;18.694;2024-03-08T09:44:15;38.72;;;24.33;;
25824;SDS011;13658;44.534;18.694;2024-03-08T09:46:42;70.20;;;39.80;;
25824;SDS011;13658;44.534;18.694;2024-03-08T09:49:08;35.28;;;19.90;;
25824;SDS011;13658;44.534;18.694;2024-03-08T09:51:36;37.85;;;23.23;;
25824;SDS011;13658;44.534;18.694;2024-03-08T09:54:05;33.03;;;20.13;;
25824;SDS011;13658;44.534;18.694;2024-03-08T09:56:35;39.53;;;23.60;;
25824;SDS011;13658;44.534;18.694;2024-03-08T09:59:01;57.97;;;31.33;;
25824;SDS011;13658;44.534;18.694;2024-03-08T10:04:04;37.78;;;22.90;;
25824;SDS011;13658;44.534;18.694;2024-03-08T10:06:30;75.43;;;46.05;;
25824;SDS011;13658;44.534;18.694;2024-03-08T10:08:56;32.33;;;20.25;;
25824;SDS011;13658;44.534;18.694;2024-03-08T10:11:24;37.83;;;22.13;;
25824;SDS011;13658;44.534;18.694;2024-03-08T10:13:50;37.67;;;22.73;;
25824;SDS011;13658;44.534;18.694;2024-03-08T10:16:16;37.72;;;23.45;;
25824;SDS011;13658;44.534;18.694;2024-03-08T10:18:45;32.95;;;21.33;;
25824;SDS011;13658;44.534;18.694;2024-03-08T10:21:11;28.38;;;19.30;;
25824;SDS011;13658;44.534;18.694;2024-03-08T10:23:38;28.50;;;19.38;;
25824;SDS011;13658;44.534;18.694;2024-03-08T10:26:15;28.67;;;19.30;;
25824;SDS011;13658;44.534;18.694;2024-03-08T10:28:45;25.98;;;17.00;;
25824;SDS011;13658;44.534;18.694;2024-03-08T10:31:15;34.83;;;21.08;;
25824;SDS011;13658;44.534;18.694;2024-03-08T10:33:42;29.13;;;18.90;;
25824;SDS011;13658;44.534;18.694;2024-03-08T10:36:08;28.52;;;19.73;;
25824;SDS011;13658;44.534;18.694;2024-03-08T10:38:38;25.90;;;18.20;;
25824;SDS011;13658;44.534;18.694;2024-03-08T10:41:08;31.98;;;21.00;;
25824;SDS011;13658;44.534;18.694;2024-03-08T10:49:08;22.85;;;16.77;;
25824;SDS011;13658;44.534;18.694;2024-03-08T10:51:40;28.63;;;19.50;;
25824;SDS011;13658;44.534;18.694;2024-03-08T10:54:07;28.38;;;18.63;;
25824;SDS011;13658;44.534;18.694;2024-03-08T10:56:37;35.47;;;23.25;;
25824;SDS011;13658;44.534;18.694;2024-03-08T10:59:05;24.05;;;17.58;;
25824;SDS011;13658;44.534;18.694;2024-03-08T11:01:35;27.50;;;18.98;;
25824;SDS011;13658;44.534;18.694;2024-03-08T11:04:04;26.88;;;18.23;;
25824;SDS011;13658;44.534;18.694;2024-03-08T11:06:31;25.05;;;18.70;;
25824;SDS011;13658;44.534;18.694;2024-03-08T11:09:08;25.23;;;18.08;;
25824;SDS011;13658;44.534;18.694;2024-03-08T11:12:11;30.90;;;21.58;;
25824;SDS011;13658;44.534;18.694;2024-03-08T11:15:00;22.65;;;16.52;;
25824;SDS011;13658;44.534;18.694;2024-03-08T11:20:25;21.33;;;15.80;;
25824;SDS011;13658;44.534;18.694;2024-03-08T11:22:52;28.45;;;18.20;;
25824;SDS011;13658;44.534;18.694;2024-03-08T11:25:39;25.98;;;18.80;;
25824;SDS011;13658;44.534;18.694;2024-03-08T11:28:18;26.67;;;18.73;;
25824;SDS011;13658;44.534;18.694;2024-03-08T11:33:30;30.00;;;20.35;;
25824;SDS011;13658;44.534;18.694;2024-03-08T11:38:50;32.22;;;19.77;;
25824;SDS011;13658;44.534;18.694;2024-03-08T11:41:22;24.42;;;16.15;;
25824;SDS011;13658;44.534;18.694;2024-03-08T11:43:50;28.80;;;18.48;;
25824;SDS011;13658;44.534;18.694;2024-03-08T11:46:30;24.50;;;16.75;;
25824;SDS011;13658;44.534;18.694;2024-03-08T11:48:56;29.42;;;17.65;;
25824;SDS011;13658;44.534;18.694;2024-03-08T11:51:22;25.40;;;17.50;;
25824;SDS011;13658;44.534;18.694;2024-03-08T11:53:51;21.95;;;15.38;;
25824;SDS011;13658;44.534;18.694;2024-03-08T11:56:18;20.13;;;15.00;;
25824;SDS011;13658;44.534;18.694;2024-03-08T11:58:56;24.08;;;15.65;;
25824;SDS011;13658;44.534;18.694;2024-03-08T12:01:22;21.92;;;15.05;;
25824;SDS011;13658;44.534;18.694;2024-03-08T12:03:55;24.60;;;17.23;;
25824;SDS011;13658;44.534;18.694;2024-03-08T12:06:26;20.65;;;14.00;;
25824;SDS011;13658;44.534;18.694;2024-03-08T12:09:01;24.10;;;15.80;;
25824;SDS011;13658;44.534;18.694;2024-03-08T12:11:27;25.33;;;16.75;;
25824;SDS011;13658;44.534;18.694;2024-03-08T12:13:53;19.48;;;14.50;;
25824;SDS011;13658;44.534;18.694;2024-03-08T12:16:19;25.25;;;15.88;;
25824;SDS011;13658;44.534;18.694;2024-03-08T12:18:48;19.30;;;14.75;;
25824;SDS011;13658;44.534;18.694;2024-03-08T12:21:17;23.02;;;16.27;;
25824;SDS011;13658;44.534;18.694;2024-03-08T12:23:46;22.65;;;17.05;;
25824;SDS011;13658;44.534;18.694;2024-03-08T12:26:16;22.05;;;16.17;;
25824;SDS011;13658;44.534;18.694;2024-03-08T12:28:44;19.60;;;14.93;;
25824;SDS011;13658;44.534;18.694;2024-03-08T12:31:17;20.63;;;14.65;;
25824;SDS011;13658;44.534;18.694;2024-03-08T12:36:24;29.40;;;19.52;;
25824;SDS011;13658;44.534;18.694;2024-03-08T12:38:51;21.38;;;15.05;;
25824;SDS011;13658;44.534;18.694;2024-03-08T12:41:20;24.17;;;15.20;;
25824;SDS011;13658;44.534;18.694;2024-03-08T12:43:46;24.15;;;16.17;;
25824;SDS011;13658;44.534;18.694;2024-03-08T12:46:16;24.38;;;16.17;;
25824;SDS011;13658;44.534;18.694;2024-03-08T12:48:45;24.17;;;15.98;;
25824;SDS011;13658;44.534;18.694;2024-03-08T12:51:15;23.40;;;16.33;;
25824;SDS011;13658;44.534;18.694;2024-03-08T12:53:44;23.92;;;17.02;;
25824;SDS011;13658;44.534;18.694;2024-03-08T12:56:11;30.60;;;19.13;;
25824;SDS011;13658;44.534;18.694;2024-03-08T12:58:38;23.33;;;17.33;;
25824;SDS011;13658;44.534;18.694;2024-03-08T13:01:07;23.55;;;15.90;;
25824;SDS011;13658;44.534;18.694;2024-03-08T13:03:34;23.80;;;15.65;;
25824;SDS011;13658;44.534;18.694;2024-03-08T13:06:03;23.60;;;16.38;;
25824;SDS011;13658;44.534;18.694;2024-03-08T13:08:39;25.23;;;17.20;;
25824;SDS011;13658;44.534;18.694;2024-03-08T13:11:06;27.70;;;17.05;;
25824;SDS011;13658;44.534;18.694;2024-03-08T13:13:37;22.80;;;16.05;;
25824;SDS011;13658;44.534;18.694;2024-03-08T13:16:05;25.17;;;16.95;;
25824;SDS011;13658;44.534;18.694;2024-03-08T13:18:35;24.30;;;15.70;;
25824;SDS011;13658;44.534;18.694;2024-03-08T13:21:01;25.85;;;16.88;;
25824;SDS011;13658;44.534;18.694;2024-03-08T13:23:31;19.33;;;12.93;;
25824;SDS011;13658;44.534;18.694;2024-03-08T13:25:57;20.35;;;13.25;;
25824;SDS011;13658;44.534;18.694;2024-03-08T13:28:23;23.40;;;15.45;;
25824;SDS011;13658;44.534;18.694;2024-03-08T13:30:55;24.17;;;16.50;;
25824;SDS011;13658;44.534;18.694;2024-03-08T13:33:23;25.85;;;17.42;;
25824;SDS011;13658;44.534;18.694;2024-03-08T13:35:49;20.90;;;14.55;;
25824;SDS011;13658;44.534;18.694;2024-03-08T13:38:16;22.35;;;15.00;;
25824;SDS011;13658;44.534;18.694;2024-03-08T13:40:45;21.10;;;14.88;;
25824;SDS011;13658;44.534;18.694;2024-03-08T13:43:14;22.50;;;15.05;;
25824;SDS011;13658;44.534;18.694;2024-03-08T13:45:40;20.75;;;15.32;;
25824;SDS011;13658;44.534;18.694;2024-03-08T13:48:07;23.52;;;15.23;;
25824;SDS011;13658;44.534;18.694;2024-03-08T13:50:37;22.10;;;15.82;;
25824;SDS011;13658;44.534;18.694;2024-03-08T13:53:05;24.48;;;15.93;;
25824;SDS011;13658;44.534;18.694;2024-03-08T13:55:31;19.60;;;14.25;;
25824;SDS011;13658;44.534;18.694;2024-03-08T13:57:58;21.38;;;15.00;;
25824;SDS011;13658;44.534;18.694;2024-03-08T14:00:25;27.55;;;16.83;;
25824;SDS011;13658;44.534;18.694;2024-03-08T14:02:58;20.27;;;14.95;;
25824;SDS011;13658;44.534;18.694;2024-03-08T14:05:24;33.15;;;22.63;;
25824;SDS011;13658;44.534;18.694;2024-03-08T14:07:50;20.85;;;13.27;;
25824;SDS011;13658;44.534;18.694;2024-03-08T14:10:19;22.98;;;14.23;;
25824;SDS011;13658;44.534;18.694;2024-03-08T14:12:48;17.98;;;13.10;;
25824;SDS011;13658;44.534;18.694;2024-03-08T14:15:15;19.15;;;14.07;;
25824;SDS011;13658;44.534;18.694;2024-03-08T14:17:42;22.58;;;15.88;;
25824;SDS011;13658;44.534;18.694;2024-03-08T14:20:08;22.65;;;16.05;;
25824;SDS011;13658;44.534;18.694;2024-03-08T14:22:34;22.45;;;13.75;;
25824;SDS011;13658;44.534;18.694;2024-03-08T14:25:00;27.33;;;17.27;;
25824;SDS011;13658;44.534;18.694;2024-03-08T14:27:27;19.42;;;13.52;;
25824;SDS011;13658;44.534;18.694;2024-03-08T14:29:53;17.35;;;13.13;;
25824;SDS011;13658;44.534;18.694;2024-03-08T14:32:20;19.48;;;13.25;;